sensor_id;sensor_type;location;lat;lon;timestamp;P1;durP1;ratioP1;P2;durP2;ratioP2
13879;SDS011;7010;48.200;16.332;2023-01-24T00:01:15;10.85;;;9.27;;
13879;SDS011;7010;48.200;16.332;2023-01-24T00:03:43;11.55;;;10.45;;
13879;SDS011;7010;48.200;16.332;2023-01-24T00:06:13;10.60;;;9.50;;
13879;SDS011;7010;48.200;16.332;2023-01-24T00:08:42;11.40;;;10.20;;
13879;SDS011;7010;48.200;16.332;2023-01-24T00:11:11;12.98;;;11.65;;
13879;SDS011;7010;48.200;16.332;2023-01-24T00:13:40;10.82;;;9.73;;
13879;SDS011;7010;48.200;16.332;2023-01-24T00:16:09;32.08;;;10.93;;
13879;SDS011;7010;48.200;16.332;2023-01-24T00:18:40;12.25;;;10.95;;
13879;SDS011;7010;48.200;16.332;2023-01-24T00:21:09;10.35;;;9.45;;
13879;SDS011;7010;48.200;16.332;2023-01-24T00:23:41;11.65;;;10.48;;
13879;SDS011;7010;48.200;16.332;2023-01-24T00:26:10;11.35;;;10.18;;
13879;SDS011;7010;48.200;16.332;2023-01-24T00:28:38;12.48;;;10.32;;
13879;SDS011;7010;48.200;16.332;2023-01-24T00:31:07;13.77;;;9.57;;
13879;SDS011;7010;48.200;16.332;2023-01-24T00:33:35;10.75;;;9.68;;
13879;SDS011;7010;48.200;16.332;2023-01-24T00:36:04;14.20;;;11.38;;
13879;SDS011;7010;48.200;16.332;2023-01-24T00:38:33;12.05;;;10.25;;
13879;SDS011;7010;48.200;16.332;2023-01-24T00:41:03;13.23;;;10.48;;
13879;SDS011;7010;48.200;16.332;2023-01-24T00:43:31;12.27;;;9.65;;
13879;SDS011;7010;48.200;16.332;2023-01-24T00:46:00;15.25;;;11.40;;
13879;SDS011;7010;48.200;16.332;2023-01-24T00:48:28;12.32;;;10.32;;
13879;SDS011;7010;48.200;16.332;2023-01-24T00:50:57;10.85;;;9.32;;
13879;SDS011;7010;48.200;16.332;2023-01-24T00:53:25;11.63;;;10.32;;
13879;SDS011;7010;48.200;16.332;2023-01-24T00:55:54;12.63;;;10.05;;
13879;SDS011;7010;48.200;16.332;2023-01-24T00:58:23;12.23;;;10.15;;
13879;SDS011;7010;48.200;16.332;2023-01-24T01:00:54;11.13;;;10.00;;
13879;SDS011;7010;48.200;16.332;2023-01-24T01:03:24;19.17;;;11.23;;
13879;SDS011;7010;48.200;16.332;2023-01-24T01:05:59;11.13;;;10.02;;
13879;SDS011;7010;48.200;16.332;2023-01-24T01:08:28;18.25;;;11.50;;
13879;SDS011;7010;48.200;16.332;2023-01-24T01:10:56;11.23;;;10.13;;
13879;SDS011;7010;48.200;16.332;2023-01-24T01:13:26;12.73;;;9.50;;
13879;SDS011;7010;48.200;16.332;2023-01-24T01:15:59;10.70;;;9.60;;
13879;SDS011;7010;48.200;16.332;2023-01-24T01:18:28;12.27;;;10.10;;
13879;SDS011;7010;48.200;16.332;2023-01-24T01:20:57;11.38;;;9.40;;
13879;SDS011;7010;48.200;16.332;2023-01-24T01:23:25;12.13;;;10.40;;
13879;SDS011;7010;48.200;16.332;2023-01-24T01:25:57;12.35;;;10.40;;
13879;SDS011;7010;48.200;16.332;2023-01-24T01:28:28;14.38;;;9.00;;
13879;SDS011;7010;48.200;16.332;2023-01-24T01:30:58;14.82;;;10.07;;
13879;SDS011;7010;48.200;16.332;2023-01-24T01:33:26;11.30;;;10.13;;
13879;SDS011;7010;48.200;16.332;2023-01-24T01:35:54;11.00;;;9.65;;
13879;SDS011;7010;48.200;16.332;2023-01-24T01:38:23;11.25;;;10.00;;
13879;SDS011;7010;48.200;16.332;2023-01-24T01:40:54;11.55;;;9.70;;
13879;SDS011;7010;48.200;16.332;2023-01-24T01:43:23;8.82;;;7.95;;
13879;SDS011;7010;48.200;16.332;2023-01-24T01:45:54;10.93;;;9.75;;
13879;SDS011;7010;48.200;16.332;2023-01-24T01:48:29;11.50;;;8.98;;
13879;SDS011;7010;48.200;16.332;2023-01-24T01:51:04;11.73;;;9.75;;
13879;SDS011;7010;48.200;16.332;2023-01-24T01:53:41;14.10;;;11.00;;
13879;SDS011;7010;48.200;16.332;2023-01-24T01:56:15;10.07;;;9.10;;
13879;SDS011;7010;48.200;16.332;2023-01-24T01:58:49;13.70;;;10.90;;
13879;SDS011;7010;48.200;16.332;2023-01-24T02:01:20;15.60;;;9.98;;
13879;SDS011;7010;48.200;16.332;2023-01-24T02:03:49;12.95;;;10.68;;
13879;SDS011;7010;48.200;16.332;2023-01-24T02:06:27;11.38;;;9.25;;
13879;SDS011;7010;48.200;16.332;2023-01-24T02:09:04;12.05;;;9.50;;
13879;SDS011;7010;48.200;16.332;2023-01-24T02:11:36;14.05;;;9.45;;
13879;SDS011;7010;48.200;16.332;2023-01-24T02:14:06;12.75;;;10.93;;
13879;SDS011;7010;48.200;16.332;2023-01-24T02:16:55;10.57;;;9.48;;
13879;SDS011;7010;48.200;16.332;2023-01-24T02:19:29;10.27;;;9.27;;
13879;SDS011;7010;48.200;16.332;2023-01-24T02:22:15;11.60;;;9.82;;
13879;SDS011;7010;48.200;16.332;2023-01-24T02:24:50;10.10;;;8.57;;
13879;SDS011;7010;48.200;16.332;2023-01-24T02:27:28;10.77;;;9.68;;
13879;SDS011;7010;48.200;16.332;2023-01-24T02:29:56;9.80;;;8.80;;
13879;SDS011;7010;48.200;16.332;2023-01-24T02:32:25;12.57;;;9.93;;
13879;SDS011;7010;48.200;16.332;2023-01-24T02:34:54;10.82;;;9.52;;
13879;SDS011;7010;48.200;16.332;2023-01-24T02:37:22;9.60;;;8.68;;
13879;SDS011;7010;48.200;16.332;2023-01-24T02:39:53;15.10;;;10.18;;
13879;SDS011;7010;48.200;16.332;2023-01-24T02:42:26;9.70;;;8.80;;
13879;SDS011;7010;48.200;16.332;2023-01-24T02:45:01;12.70;;;10.35;;
13879;SDS011;7010;48.200;16.332;2023-01-24T02:47:36;15.93;;;10.63;;
13879;SDS011;7010;48.200;16.332;2023-01-24T02:50:08;10.00;;;8.98;;
13879;SDS011;7010;48.200;16.332;2023-01-24T02:52:37;11.55;;;9.40;;
13879;SDS011;7010;48.200;16.332;2023-01-24T02:55:22;10.13;;;9.13;;
13879;SDS011;7010;48.200;16.332;2023-01-24T02:57:53;9.73;;;8.73;;
13879;SDS011;7010;48.200;16.332;2023-01-24T03:00:32;11.82;;;10.18;;
13879;SDS011;7010;48.200;16.332;2023-01-24T03:03:01;10.45;;;8.93;;
13879;SDS011;7010;48.200;16.332;2023-01-24T03:05:30;11.23;;;10.10;;
13879;SDS011;7010;48.200;16.332;2023-01-24T03:08:06;10.68;;;9.57;;
13879;SDS011;7010;48.200;16.332;2023-01-24T03:10:34;15.10;;;10.88;;
13879;SDS011;7010;48.200;16.332;2023-01-24T03:13:04;11.38;;;9.88;;
13879;SDS011;7010;48.200;16.332;2023-01-24T03:15:49;10.20;;;9.20;;
13879;SDS011;7010;48.200;16.332;2023-01-24T03:18:35;16.85;;;10.25;;
13879;SDS011;7010;48.200;16.332;2023-01-24T03:21:21;14.32;;;10.02;;
13879;SDS011;7010;48.200;16.332;2023-01-24T03:24:07;10.68;;;9.35;;
13879;SDS011;7010;48.200;16.332;2023-01-24T03:26:53;11.15;;;9.57;;
13879;SDS011;7010;48.200;16.332;2023-01-24T03:29:39;24.23;;;11.57;;
13879;SDS011;7010;48.200;16.332;2023-01-24T03:32:25;14.35;;;11.02;;
13879;SDS011;7010;48.200;16.332;2023-01-24T03:35:10;11.32;;;9.73;;
13879;SDS011;7010;48.200;16.332;2023-01-24T03:37:39;13.90;;;11.35;;
13879;SDS011;7010;48.200;16.332;2023-01-24T03:40:24;12.40;;;11.00;;
13879;SDS011;7010;48.200;16.332;2023-01-24T03:42:53;11.75;;;9.73;;
13879;SDS011;7010;48.200;16.332;2023-01-24T03:45:23;13.68;;;11.20;;
13879;SDS011;7010;48.200;16.332;2023-01-24T03:47:54;12.23;;;10.93;;
13879;SDS011;7010;48.200;16.332;2023-01-24T03:50:24;11.73;;;10.52;;
13879;SDS011;7010;48.200;16.332;2023-01-24T03:53:11;11.63;;;10.38;;
13879;SDS011;7010;48.200;16.332;2023-01-24T03:55:40;11.82;;;10.52;;
13879;SDS011;7010;48.200;16.332;2023-01-24T03:58:09;14.00;;;12.27;;
13879;SDS011;7010;48.200;16.332;2023-01-24T04:00:39;13.63;;;10.98;;
13879;SDS011;7010;48.200;16.332;2023-01-24T04:03:07;10.65;;;9.63;;
13879;SDS011;7010;48.200;16.332;2023-01-24T04:05:35;13.25;;;10.90;;
13879;SDS011;7010;48.200;16.332;2023-01-24T04:08:04;13.20;;;11.20;;
13879;SDS011;7010;48.200;16.332;2023-01-24T04:10:34;21.20;;;11.77;;
13879;SDS011;7010;48.200;16.332;2023-01-24T04:13:02;13.45;;;10.50;;
13879;SDS011;7010;48.200;16.332;2023-01-24T04:15:31;10.57;;;9.52;;
13879;SDS011;7010;48.200;16.332;2023-01-24T04:18:02;10.98;;;9.98;;
13879;SDS011;7010;48.200;16.332;2023-01-24T04:20:32;11.57;;;10.50;;
13879;SDS011;7010;48.200;16.332;2023-01-24T04:23:02;21.33;;;12.95;;
13879;SDS011;7010;48.200;16.332;2023-01-24T04:25:32;13.98;;;11.63;;
13879;SDS011;7010;48.200;16.332;2023-01-24T04:28:00;17.42;;;12.05;;
13879;SDS011;7010;48.200;16.332;2023-01-24T04:30:29;12.68;;;11.43;;
13879;SDS011;7010;48.200;16.332;2023-01-24T04:32:57;13.27;;;11.63;;
13879;SDS011;7010;48.200;16.332;2023-01-24T04:35:28;18.20;;;12.25;;
13879;SDS011;7010;48.200;16.332;2023-01-24T04:37:57;12.65;;;10.93;;
13879;SDS011;7010;48.200;16.332;2023-01-24T04:40:26;13.50;;;11.88;;
13879;SDS011;7010;48.200;16.332;2023-01-24T04:42:55;22.73;;;12.95;;
13879;SDS011;7010;48.200;16.332;2023-01-24T04:45:24;13.10;;;11.45;;
13879;SDS011;7010;48.200;16.332;2023-01-24T04:47:52;21.00;;;13.07;;
13879;SDS011;7010;48.200;16.332;2023-01-24T04:50:21;12.70;;;11.40;;
13879;SDS011;7010;48.200;16.332;2023-01-24T04:52:51;15.70;;;12.45;;
13879;SDS011;7010;48.200;16.332;2023-01-24T04:55:19;13.07;;;11.43;;
13879;SDS011;7010;48.200;16.332;2023-01-24T04:57:48;15.23;;;13.02;;
13879;SDS011;7010;48.200;16.332;2023-01-24T05:00:16;13.82;;;12.45;;
13879;SDS011;7010;48.200;16.332;2023-01-24T05:02:45;16.75;;;13.30;;
13879;SDS011;7010;48.200;16.332;2023-01-24T05:05:13;16.88;;;11.93;;
13879;SDS011;7010;48.200;16.332;2023-01-24T05:07:41;14.18;;;11.80;;
13879;SDS011;7010;48.200;16.332;2023-01-24T05:10:11;14.93;;;12.02;;
13879;SDS011;7010;48.200;16.332;2023-01-24T05:12:39;16.75;;;13.00;;
13879;SDS011;7010;48.200;16.332;2023-01-24T05:15:08;20.88;;;12.43;;
13879;SDS011;7010;48.200;16.332;2023-01-24T05:17:36;12.32;;;10.95;;
13879;SDS011;7010;48.200;16.332;2023-01-24T05:20:05;14.18;;;12.02;;
13879;SDS011;7010;48.200;16.332;2023-01-24T05:22:34;15.15;;;13.20;;
13879;SDS011;7010;48.200;16.332;2023-01-24T05:25:02;20.80;;;12.50;;
13879;SDS011;7010;48.200;16.332;2023-01-24T05:27:32;17.60;;;13.80;;
13879;SDS011;7010;48.200;16.332;2023-01-24T05:30:00;15.50;;;13.30;;
13879;SDS011;7010;48.200;16.332;2023-01-24T05:32:29;16.92;;;14.30;;
13879;SDS011;7010;48.200;16.332;2023-01-24T05:34:57;18.50;;;14.00;;
13879;SDS011;7010;48.200;16.332;2023-01-24T05:37:25;14.93;;;12.57;;
13879;SDS011;7010;48.200;16.332;2023-01-24T05:39:53;14.45;;;12.07;;
13879;SDS011;7010;48.200;16.332;2023-01-24T05:42:22;15.45;;;13.48;;
13879;SDS011;7010;48.200;16.332;2023-01-24T05:44:51;14.10;;;12.60;;
13879;SDS011;7010;48.200;16.332;2023-01-24T05:47:20;19.73;;;12.38;;
13879;SDS011;7010;48.200;16.332;2023-01-24T05:49:48;20.63;;;13.75;;
13879;SDS011;7010;48.200;16.332;2023-01-24T05:52:16;17.02;;;13.10;;
13879;SDS011;7010;48.200;16.332;2023-01-24T05:54:47;16.05;;;12.80;;
13879;SDS011;7010;48.200;16.332;2023-01-24T05:57:17;22.90;;;14.95;;
13879;SDS011;7010;48.200;16.332;2023-01-24T05:59:45;15.88;;;13.57;;
13879;SDS011;7010;48.200;16.332;2023-01-24T06:02:15;20.20;;;14.32;;
13879;SDS011;7010;48.200;16.332;2023-01-24T06:04:44;20.83;;;12.82;;
13879;SDS011;7010;48.200;16.332;2023-01-24T06:07:13;19.73;;;14.75;;
13879;SDS011;7010;48.200;16.332;2023-01-24T06:09:41;19.50;;;13.80;;
13879;SDS011;7010;48.200;16.332;2023-01-24T06:12:09;19.40;;;13.68;;
13879;SDS011;7010;48.200;16.332;2023-01-24T06:14:37;18.73;;;15.13;;
13879;SDS011;7010;48.200;16.332;2023-01-24T06:17:06;14.85;;;13.10;;
13879;SDS011;7010;48.200;16.332;2023-01-24T06:19:36;21.38;;;13.80;;
13879;SDS011;7010;48.200;16.332;2023-01-24T06:22:08;17.83;;;14.35;;
13879;SDS011;7010;48.200;16.332;2023-01-24T06:24:45;18.42;;;14.23;;
13879;SDS011;7010;48.200;16.332;2023-01-24T06:27:13;15.38;;;13.80;;
13879;SDS011;7010;48.200;16.332;2023-01-24T06:29:42;14.68;;;13.15;;
13879;SDS011;7010;48.200;16.332;2023-01-24T06:32:15;27.92;;;15.68;;
13879;SDS011;7010;48.200;16.332;2023-01-24T06:35:00;16.73;;;14.68;;
13879;SDS011;7010;48.200;16.332;2023-01-24T06:37:37;14.52;;;13.02;;
13879;SDS011;7010;48.200;16.332;2023-01-24T06:40:12;15.32;;;13.50;;
13879;SDS011;7010;48.200;16.332;2023-01-24T06:42:43;20.58;;;15.32;;
13879;SDS011;7010;48.200;16.332;2023-01-24T06:45:12;26.88;;;14.70;;
13879;SDS011;7010;48.200;16.332;2023-01-24T06:47:40;16.02;;;14.38;;
13879;SDS011;7010;48.200;16.332;2023-01-24T06:50:15;17.30;;;15.18;;
13879;SDS011;7010;48.200;16.332;2023-01-24T06:52:55;14.52;;;13.02;;
13879;SDS011;7010;48.200;16.332;2023-01-24T06:55:24;17.10;;;13.95;;
13879;SDS011;7010;48.200;16.332;2023-01-24T06:57:55;21.58;;;16.35;;
13879;SDS011;7010;48.200;16.332;2023-01-24T07:00:25;15.98;;;14.10;;
13879;SDS011;7010;48.200;16.332;2023-01-24T07:03:04;23.30;;;15.23;;
13879;SDS011;7010;48.200;16.332;2023-01-24T07:05:41;27.00;;;15.88;;
13879;SDS011;7010;48.200;16.332;2023-01-24T07:08:22;19.25;;;15.40;;
13879;SDS011;7010;48.200;16.332;2023-01-24T07:10:57;20.08;;;15.20;;
13879;SDS011;7010;48.200;16.332;2023-01-24T07:13:43;22.38;;;15.40;;
13879;SDS011;7010;48.200;16.332;2023-01-24T07:16:27;19.88;;;14.98;;
13879;SDS011;7010;48.200;16.332;2023-01-24T07:18:57;17.25;;;14.48;;
13879;SDS011;7010;48.200;16.332;2023-01-24T07:21:28;18.70;;;14.80;;
13879;SDS011;7010;48.200;16.332;2023-01-24T07:24:44;20.98;;;14.52;;
13879;SDS011;7010;48.200;16.332;2023-01-24T07:27:22;20.25;;;14.02;;
13879;SDS011;7010;48.200;16.332;2023-01-24T07:29:57;21.98;;;15.70;;
13879;SDS011;7010;48.200;16.332;2023-01-24T07:32:27;18.73;;;16.27;;
13879;SDS011;7010;48.200;16.332;2023-01-24T07:35:05;23.08;;;15.95;;
13879;SDS011;7010;48.200;16.332;2023-01-24T07:37:35;19.35;;;16.30;;
13879;SDS011;7010;48.200;16.332;2023-01-24T07:40:08;20.08;;;16.75;;
13879;SDS011;7010;48.200;16.332;2023-01-24T07:42:38;21.85;;;17.27;;
13879;SDS011;7010;48.200;16.332;2023-01-24T07:45:17;16.58;;;14.40;;
13879;SDS011;7010;48.200;16.332;2023-01-24T07:48:07;25.02;;;15.65;;
13879;SDS011;7010;48.200;16.332;2023-01-24T07:50:35;21.75;;;15.23;;
13879;SDS011;7010;48.200;16.332;2023-01-24T07:53:06;19.45;;;15.05;;
13879;SDS011;7010;48.200;16.332;2023-01-24T07:55:34;16.65;;;14.70;;
13879;SDS011;7010;48.200;16.332;2023-01-24T07:58:02;21.48;;;15.48;;
13879;SDS011;7010;48.200;16.332;2023-01-24T08:00:31;17.80;;;14.52;;
13879;SDS011;7010;48.200;16.332;2023-01-24T08:02:59;20.92;;;15.65;;
13879;SDS011;7010;48.200;16.332;2023-01-24T08:05:28;18.17;;;15.63;;
13879;SDS011;7010;48.200;16.332;2023-01-24T08:07:56;17.95;;;14.85;;
13879;SDS011;7010;48.200;16.332;2023-01-24T08:10:29;15.93;;;14.23;;
13879;SDS011;7010;48.200;16.332;2023-01-24T08:13:33;21.00;;;15.40;;
13879;SDS011;7010;48.200;16.332;2023-01-24T08:16:02;20.02;;;15.50;;
13879;SDS011;7010;48.200;16.332;2023-01-24T08:18:31;19.40;;;15.40;;
13879;SDS011;7010;48.200;16.332;2023-01-24T08:21:04;26.42;;;14.93;;
13879;SDS011;7010;48.200;16.332;2023-01-24T08:23:39;17.85;;;14.98;;
13879;SDS011;7010;48.200;16.332;2023-01-24T08:26:16;19.63;;;15.88;;
13879;SDS011;7010;48.200;16.332;2023-01-24T08:28:48;20.63;;;15.75;;
13879;SDS011;7010;48.200;16.332;2023-01-24T08:31:22;18.08;;;14.73;;
13879;SDS011;7010;48.200;16.332;2023-01-24T08:33:50;19.90;;;15.70;;
13879;SDS011;7010;48.200;16.332;2023-01-24T08:36:19;16.92;;;15.15;;
13879;SDS011;7010;48.200;16.332;2023-01-24T08:38:53;20.38;;;14.85;;
13879;SDS011;7010;48.200;16.332;2023-01-24T08:41:33;23.75;;;16.67;;
13879;SDS011;7010;48.200;16.332;2023-01-24T08:44:03;17.17;;;14.98;;
13879;SDS011;7010;48.200;16.332;2023-01-24T08:46:39;17.42;;;14.63;;
13879;SDS011;7010;48.200;16.332;2023-01-24T08:49:12;21.02;;;17.65;;
13879;SDS011;7010;48.200;16.332;2023-01-24T08:51:44;17.65;;;15.02;;
13879;SDS011;7010;48.200;16.332;2023-01-24T08:54:14;23.80;;;16.73;;
13879;SDS011;7010;48.200;16.332;2023-01-24T08:56:43;18.90;;;16.27;;
13879;SDS011;7010;48.200;16.332;2023-01-24T08:59:13;19.35;;;16.08;;
13879;SDS011;7010;48.200;16.332;2023-01-24T09:01:48;21.50;;;17.48;;
13879;SDS011;7010;48.200;16.332;2023-01-24T09:07:21;23.35;;;17.77;;
13879;SDS011;7010;48.200;16.332;2023-01-24T09:10:46;27.02;;;17.77;;
13879;SDS011;7010;48.200;16.332;2023-01-24T09:19:54;23.10;;;17.92;;
13879;SDS011;7010;48.200;16.332;2023-01-24T09:22:31;24.88;;;17.45;;
13879;SDS011;7010;48.200;16.332;2023-01-24T10:04:29;20.45;;;16.27;;
13879;SDS011;7010;48.200;16.332;2023-01-24T10:22:26;19.08;;;15.05;;
13879;SDS011;7010;48.200;16.332;2023-01-24T10:25:42;17.38;;;14.27;;
13879;SDS011;7010;48.200;16.332;2023-01-24T10:28:23;29.67;;;15.52;;
13879;SDS011;7010;48.200;16.332;2023-01-24T10:31:17;23.63;;;15.98;;
13879;SDS011;7010;48.200;16.332;2023-01-24T10:33:58;22.00;;;15.98;;
13879;SDS011;7010;48.200;16.332;2023-01-24T10:39:43;20.25;;;16.45;;
13879;SDS011;7010;48.200;16.332;2023-01-24T10:42:14;15.85;;;12.77;;
13879;SDS011;7010;48.200;16.332;2023-01-24T10:44:57;24.08;;;14.85;;
13879;SDS011;7010;48.200;16.332;2023-01-24T10:47:42;17.73;;;13.75;;
13879;SDS011;7010;48.200;16.332;2023-01-24T10:50:14;17.75;;;14.65;;
13879;SDS011;7010;48.200;16.332;2023-01-24T10:56:19;17.25;;;14.30;;
13879;SDS011;7010;48.200;16.332;2023-01-24T10:59:00;19.58;;;15.18;;
13879;SDS011;7010;48.200;16.332;2023-01-24T11:02:09;15.48;;;13.32;;
13879;SDS011;7010;48.200;16.332;2023-01-24T11:11:00;16.77;;;13.40;;
13879;SDS011;7010;48.200;16.332;2023-01-24T11:23:34;19.27;;;14.35;;
13879;SDS011;7010;48.200;16.332;2023-01-24T11:27:07;16.55;;;14.77;;
13879;SDS011;7010;48.200;16.332;2023-01-24T11:37:38;23.58;;;14.23;;
13879;SDS011;7010;48.200;16.332;2023-01-24T11:40:23;14.27;;;12.70;;
13879;SDS011;7010;48.200;16.332;2023-01-24T11:43:14;18.65;;;13.70;;
13879;SDS011;7010;48.200;16.332;2023-01-24T11:47:07;20.00;;;13.52;;
13879;SDS011;7010;48.200;16.332;2023-01-24T11:53:49;15.20;;;12.27;;
13879;SDS011;7010;48.200;16.332;2023-01-24T12:01:53;14.73;;;12.75;;
13879;SDS011;7010;48.200;16.332;2023-01-24T12:04:24;15.93;;;12.02;;
13879;SDS011;7010;48.200;16.332;2023-01-24T12:08:38;13.90;;;12.40;;
13879;SDS011;7010;48.200;16.332;2023-01-24T12:11:42;18.02;;;13.07;;
13879;SDS011;7010;48.200;16.332;2023-01-24T12:17:48;15.98;;;13.68;;
13879;SDS011;7010;48.200;16.332;2023-01-24T12:20:47;14.68;;;12.38;;
13879;SDS011;7010;48.200;16.332;2023-01-24T12:24:21;14.77;;;12.38;;
13879;SDS011;7010;48.200;16.332;2023-01-24T12:34:55;19.20;;;14.38;;
13879;SDS011;7010;48.200;16.332;2023-01-24T12:38:13;14.45;;;12.95;;
13879;SDS011;7010;48.200;16.332;2023-01-24T12:45:38;16.63;;;13.18;;
13879;SDS011;7010;48.200;16.332;2023-01-24T12:59:43;18.55;;;13.35;;
13879;SDS011;7010;48.200;16.332;2023-01-24T13:09:35;16.65;;;11.85;;
13879;SDS011;7010;48.200;16.332;2023-01-24T13:12:51;15.38;;;12.60;;
13879;SDS011;7010;48.200;16.332;2023-01-24T13:15:58;19.58;;;11.43;;
13879;SDS011;7010;48.200;16.332;2023-01-24T13:19:15;12.68;;;10.73;;
13879;SDS011;7010;48.200;16.332;2023-01-24T13:21:59;13.73;;;11.35;;
13879;SDS011;7010;48.200;16.332;2023-01-24T13:24:51;19.27;;;12.38;;
13879;SDS011;7010;48.200;16.332;2023-01-24T13:30:47;20.35;;;13.50;;
13879;SDS011;7010;48.200;16.332;2023-01-24T13:33:33;16.02;;;12.32;;
13879;SDS011;7010;48.200;16.332;2023-01-24T13:36:06;17.05;;;13.30;;
13879;SDS011;7010;48.200;16.332;2023-01-24T13:38:42;15.07;;;12.38;;
13879;SDS011;7010;48.200;16.332;2023-01-24T13:41:17;15.80;;;11.63;;
13879;SDS011;7010;48.200;16.332;2023-01-24T14:04:56;15.52;;;12.13;;
13879;SDS011;7010;48.200;16.332;2023-01-24T14:14:57;12.77;;;10.80;;
13879;SDS011;7010;48.200;16.332;2023-01-24T14:17:48;18.05;;;12.50;;
13879;SDS011;7010;48.200;16.332;2023-01-24T14:23:24;12.23;;;10.90;;
13879;SDS011;7010;48.200;16.332;2023-01-24T14:25:56;20.23;;;11.02;;
13879;SDS011;7010;48.200;16.332;2023-01-24T14:39:30;13.32;;;11.35;;
13879;SDS011;7010;48.200;16.332;2023-01-24T14:42:26;22.23;;;11.18;;
13879;SDS011;7010;48.200;16.332;2023-01-24T14:45:11;11.63;;;10.43;;
13879;SDS011;7010;48.200;16.332;2023-01-24T14:47:44;12.82;;;11.60;;
13879;SDS011;7010;48.200;16.332;2023-01-24T14:50:27;14.25;;;11.85;;
13879;SDS011;7010;48.200;16.332;2023-01-24T14:52:57;13.70;;;11.63;;
13879;SDS011;7010;48.200;16.332;2023-01-24T14:55:31;14.05;;;10.60;;
13879;SDS011;7010;48.200;16.332;2023-01-24T14:58:14;16.90;;;11.65;;
13879;SDS011;7010;48.200;16.332;2023-01-24T15:00:47;13.43;;;11.27;;
13879;SDS011;7010;48.200;16.332;2023-01-24T15:03:17;12.38;;;10.05;;
13879;SDS011;7010;48.200;16.332;2023-01-24T15:05:55;15.25;;;10.27;;
13879;SDS011;7010;48.200;16.332;2023-01-24T15:08:25;14.43;;;11.13;;
13879;SDS011;7010;48.200;16.332;2023-01-24T15:10:56;31.25;;;11.80;;
13879;SDS011;7010;48.200;16.332;2023-01-24T15:13:31;14.68;;;11.20;;
13879;SDS011;7010;48.200;16.332;2023-01-24T15:16:03;16.08;;;11.38;;
13879;SDS011;7010;48.200;16.332;2023-01-24T15:18:35;11.45;;;10.35;;
13879;SDS011;7010;48.200;16.332;2023-01-24T15:21:15;12.27;;;10.98;;
13879;SDS011;7010;48.200;16.332;2023-01-24T15:24:03;13.88;;;11.50;;
13879;SDS011;7010;48.200;16.332;2023-01-24T15:26:37;16.60;;;12.38;;
13879;SDS011;7010;48.200;16.332;2023-01-24T15:32:19;12.98;;;10.93;;
13879;SDS011;7010;48.200;16.332;2023-01-24T15:38:09;14.00;;;10.05;;
13879;SDS011;7010;48.200;16.332;2023-01-24T15:40:45;11.43;;;9.85;;
13879;SDS011;7010;48.200;16.332;2023-01-24T15:43:18;13.55;;;10.80;;
13879;SDS011;7010;48.200;16.332;2023-01-24T15:46:06;9.77;;;8.88;;
13879;SDS011;7010;48.200;16.332;2023-01-24T15:48:59;10.77;;;8.95;;
13879;SDS011;7010;48.200;16.332;2023-01-24T15:51:33;14.70;;;10.43;;
13879;SDS011;7010;48.200;16.332;2023-01-24T15:54:07;15.82;;;11.45;;
13879;SDS011;7010;48.200;16.332;2023-01-24T15:56:40;12.27;;;10.45;;
13879;SDS011;7010;48.200;16.332;2023-01-24T15:59:20;21.45;;;10.98;;
13879;SDS011;7010;48.200;16.332;2023-01-24T16:01:49;11.27;;;9.32;;
13879;SDS011;7010;48.200;16.332;2023-01-24T16:04:18;11.20;;;9.93;;
13879;SDS011;7010;48.200;16.332;2023-01-24T16:06:49;10.30;;;9.10;;
13879;SDS011;7010;48.200;16.332;2023-01-24T16:09:27;14.00;;;10.52;;
13879;SDS011;7010;48.200;16.332;2023-01-24T16:11:56;10.68;;;8.80;;
13879;SDS011;7010;48.200;16.332;2023-01-24T16:14:28;13.35;;;10.02;;
13879;SDS011;7010;48.200;16.332;2023-01-24T16:16:58;11.95;;;10.27;;
13879;SDS011;7010;48.200;16.332;2023-01-24T16:19:40;10.57;;;9.52;;
13879;SDS011;7010;48.200;16.332;2023-01-24T16:22:17;12.05;;;10.30;;
13879;SDS011;7010;48.200;16.332;2023-01-24T16:25:05;10.02;;;9.00;;
13879;SDS011;7010;48.200;16.332;2023-01-24T16:28:33;13.45;;;9.52;;
13879;SDS011;7010;48.200;16.332;2023-01-24T16:35:11;12.68;;;10.57;;
13879;SDS011;7010;48.200;16.332;2023-01-24T16:37:40;13.57;;;10.30;;
13879;SDS011;7010;48.200;16.332;2023-01-24T16:40:09;12.20;;;10.77;;
13879;SDS011;7010;48.200;16.332;2023-01-24T16:42:39;12.10;;;10.45;;
13879;SDS011;7010;48.200;16.332;2023-01-24T16:45:11;11.20;;;10.02;;
13879;SDS011;7010;48.200;16.332;2023-01-24T16:47:43;14.75;;;11.90;;
13879;SDS011;7010;48.200;16.332;2023-01-24T16:50:16;10.93;;;9.57;;
13879;SDS011;7010;48.200;16.332;2023-01-24T16:52:49;11.90;;;10.65;;
13879;SDS011;7010;48.200;16.332;2023-01-24T16:55:19;12.10;;;10.40;;
13879;SDS011;7010;48.200;16.332;2023-01-24T16:57:47;15.57;;;11.13;;
13879;SDS011;7010;48.200;16.332;2023-01-24T17:00:19;16.00;;;10.80;;
13879;SDS011;7010;48.200;16.332;2023-01-24T17:02:48;11.20;;;9.98;;
13879;SDS011;7010;48.200;16.332;2023-01-24T17:05:29;12.93;;;10.13;;
13879;SDS011;7010;48.200;16.332;2023-01-24T17:08:01;15.00;;;11.77;;
13879;SDS011;7010;48.200;16.332;2023-01-24T17:10:32;12.35;;;10.68;;
13879;SDS011;7010;48.200;16.332;2023-01-24T17:13:12;13.15;;;11.05;;
13879;SDS011;7010;48.200;16.332;2023-01-24T17:16:14;20.33;;;11.35;;
13879;SDS011;7010;48.200;16.332;2023-01-24T17:18:43;12.02;;;10.27;;
13879;SDS011;7010;48.200;16.332;2023-01-24T17:21:31;14.55;;;10.90;;
13879;SDS011;7010;48.200;16.332;2023-01-24T17:24:19;11.45;;;10.25;;
13879;SDS011;7010;48.200;16.332;2023-01-24T17:26:48;10.45;;;9.35;;
13879;SDS011;7010;48.200;16.332;2023-01-24T17:29:16;13.60;;;10.65;;
13879;SDS011;7010;48.200;16.332;2023-01-24T17:32:12;13.90;;;10.82;;
13879;SDS011;7010;48.200;16.332;2023-01-24T17:39:09;13.88;;;10.85;;
13879;SDS011;7010;48.200;16.332;2023-01-24T17:41:39;23.25;;;14.38;;
13879;SDS011;7010;48.200;16.332;2023-01-24T17:44:24;14.45;;;11.35;;
13879;SDS011;7010;48.200;16.332;2023-01-24T17:47:00;19.23;;;11.82;;
13879;SDS011;7010;48.200;16.332;2023-01-24T17:49:43;11.50;;;10.30;;
13879;SDS011;7010;48.200;16.332;2023-01-24T17:52:11;13.50;;;11.30;;
13879;SDS011;7010;48.200;16.332;2023-01-24T17:54:41;10.30;;;9.30;;
13879;SDS011;7010;48.200;16.332;2023-01-24T17:57:09;13.05;;;9.70;;
13879;SDS011;7010;48.200;16.332;2023-01-24T17:59:37;12.52;;;10.95;;
13879;SDS011;7010;48.200;16.332;2023-01-24T18:02:07;13.52;;;10.40;;
13879;SDS011;7010;48.200;16.332;2023-01-24T18:04:36;15.90;;;10.88;;
13879;SDS011;7010;48.200;16.332;2023-01-24T18:07:05;12.38;;;10.50;;
13879;SDS011;7010;48.200;16.332;2023-01-24T18:09:33;12.65;;;11.32;;
13879;SDS011;7010;48.200;16.332;2023-01-24T18:12:11;12.27;;;9.70;;
13879;SDS011;7010;48.200;16.332;2023-01-24T18:14:39;12.85;;;10.57;;
13879;SDS011;7010;48.200;16.332;2023-01-24T18:17:09;12.45;;;10.98;;
13879;SDS011;7010;48.200;16.332;2023-01-24T18:19:40;12.10;;;10.55;;
13879;SDS011;7010;48.200;16.332;2023-01-24T18:22:08;10.48;;;9.30;;
13879;SDS011;7010;48.200;16.332;2023-01-24T18:24:37;11.23;;;10.02;;
13879;SDS011;7010;48.200;16.332;2023-01-24T18:27:07;10.48;;;9.40;;
13879;SDS011;7010;48.200;16.332;2023-01-24T18:29:39;11.15;;;10.02;;
13879;SDS011;7010;48.200;16.332;2023-01-24T18:32:34;10.88;;;9.82;;